sensor_id;sensor_type;location;lat;lon;timestamp;temperature;humidity
46123;DHT22;31856;-35.404;149.120;2022-12-29T00:01:08;26.30;55.80
46123;DHT22;31856;-35.404;149.120;2022-12-29T00:03:38;26.30;55.10
46123;DHT22;31856;-35.404;149.120;2022-12-29T00:06:09;26.40;55.00
46123;DHT22;31856;-35.404;149.120;2022-12-29T00:08:40;26.70;54.80
46123;DHT22;31856;-35.404;149.120;2022-12-29T00:11:13;26.70;54.00
46123;DHT22;31856;-35.404;149.120;2022-12-29T00:13:43;26.80;54.00
46123;DHT22;31856;-35.404;149.120;2022-12-29T00:16:33;26.80;53.80
46123;DHT22;31856;-35.404;149.120;2022-12-29T00:19:04;27.00;53.50
46123;DHT22;31856;-35.404;149.120;2022-12-29T00:21:34;27.20;52.90
46123;DHT22;31856;-35.404;149.120;2022-12-29T00:24:22;27.20;52.90
46123;DHT22;31856;-35.404;149.120;2022-12-29T00:29:52;27.20;52.40
46123;DHT22;31856;-35.404;149.120;2022-12-29T00:32:40;27.10;52.60
46123;DHT22;31856;-35.404;149.120;2022-12-29T00:35:42;27.00;53.30
46123;DHT22;31856;-35.404;149.120;2022-12-29T00:38:13;26.90;53.40
46123;DHT22;31856;-35.404;149.120;2022-12-29T00:41:02;27.00;53.10
46123;DHT22;31856;-35.404;149.120;2022-12-29T00:43:50;27.00;53.40
46123;DHT22;31856;-35.404;149.120;2022-12-29T00:46:38;27.20;53.00
46123;DHT22;31856;-35.404;149.120;2022-12-29T00:49:10;27.30;52.60
46123;DHT22;31856;-35.404;149.120;2022-12-29T00:52:01;27.30;52.80
46123;DHT22;31856;-35.404;149.120;2022-12-29T00:54:41;27.30;52.80
46123;DHT22;31856;-35.404;149.120;2022-12-29T00:57:14;27.30;53.10
46123;DHT22;31856;-35.404;149.120;2022-12-29T03:06:11;27.90;49.60
46123;DHT22;31856;-35.404;149.120;2022-12-29T03:11:37;27.70;50.30
46123;DHT22;31856;-35.404;149.120;2022-12-29T03:17:51;27.30;51.00
46123;DHT22;31856;-35.404;149.120;2022-12-29T03:20:25;27.20;50.90
46123;DHT22;31856;-35.404;149.120;2022-12-29T03:23:01;27.00;51.40
46123;DHT22;31856;-35.404;149.120;2022-12-29T03:25:43;26.90;51.50
46123;DHT22;31856;-35.404;149.120;2022-12-29T03:28:29;26.80;52.10
46123;DHT22;31856;-35.404;149.120;2022-12-29T03:31:03;26.50;52.50
46123;DHT22;31856;-35.404;149.120;2022-12-29T03:33:35;26.30;52.50
46123;DHT22;31856;-35.404;149.120;2022-12-29T03:36:10;26.20;53.10
46123;DHT22;31856;-35.404;149.120;2022-12-29T03:38:59;26.20;53.60
46123;DHT22;31856;-35.404;149.120;2022-12-29T03:41:32;26.10;53.60
46123;DHT22;31856;-35.404;149.120;2022-12-29T03:44:05;26.00;53.60
46123;DHT22;31856;-35.404;149.120;2022-12-29T03:46:35;26.00;53.60
46123;DHT22;31856;-35.404;149.120;2022-12-29T03:49:05;25.90;53.80
46123;DHT22;31856;-35.404;149.120;2022-12-29T03:51:36;25.90;53.40
46123;DHT22;31856;-35.404;149.120;2022-12-29T03:54:06;25.80;53.70
46123;DHT22;31856;-35.404;149.120;2022-12-29T03:56:37;25.90;53.70
46123;DHT22;31856;-35.404;149.120;2022-12-29T03:59:07;26.00;53.60
46123;DHT22;31856;-35.404;149.120;2022-12-29T04:01:38;25.90;53.90
46123;DHT22;31856;-35.404;149.120;2022-12-29T10:25:56;19.20;80.10
46123;DHT22;31856;-35.404;149.120;2022-12-29T10:28:43;19.20;80.30
46123;DHT22;31856;-35.404;149.120;2022-12-29T10:31:24;19.20;80.40
46123;DHT22;31856;-35.404;149.120;2022-12-29T10:34:02;19.20;80.90
46123;DHT22;31856;-35.404;149.120;2022-12-29T10:36:43;19.10;81.40
46123;DHT22;31856;-35.404;149.120;2022-12-29T10:45:05;18.90;82.20
46123;DHT22;31856;-35.404;149.120;2022-12-29T10:47:40;18.90;82.40
46123;DHT22;31856;-35.404;149.120;2022-12-29T10:50:15;18.90;82.40
46123;DHT22;31856;-35.404;149.120;2022-12-29T10:52:46;18.80;82.20
46123;DHT22;31856;-35.404;149.120;2022-12-29T10:55:25;18.80;82.00
46123;DHT22;31856;-35.404;149.120;2022-12-29T10:58:02;18.80;82.40
46123;DHT22;31856;-35.404;149.120;2022-12-29T11:00:34;18.80;82.30
46123;DHT22;31856;-35.404;149.120;2022-12-29T11:08:45;18.80;82.50
46123;DHT22;31856;-35.404;149.120;2022-12-29T11:11:24;18.80;82.10
46123;DHT22;31856;-35.404;149.120;2022-12-29T11:14:08;19.00;82.20
46123;DHT22;31856;-35.404;149.120;2022-12-29T11:16:41;19.00;82.30
46123;DHT22;31856;-35.404;149.120;2022-12-29T23:37:41;22.90;63.70
46123;DHT22;31856;-35.404;149.120;2022-12-29T23:40:12;23.10;61.80
46123;DHT22;31856;-35.404;149.120;2022-12-29T23:42:42;23.30;62.80
46123;DHT22;31856;-35.404;149.120;2022-12-29T23:45:12;23.30;62.90
46123;DHT22;31856;-35.404;149.120;2022-12-29T23:47:43;23.20;62.80
46123;DHT22;31856;-35.404;149.120;2022-12-29T23:50:13;23.20;63.10
46123;DHT22;31856;-35.404;149.120;2022-12-29T23:52:44;23.50;62.10
46123;DHT22;31856;-35.404;149.120;2022-12-29T23:55:15;23.70;62.30
46123;DHT22;31856;-35.404;149.120;2022-12-29T23:57:45;23.80;61.20
